createdAt,value
2018-12-23T00:00:02.628Z,6.62
2018-12-23T00:02:33.625Z,6.67
2018-12-23T00:05:11.427Z,6.62
2018-12-23T00:07:37.058Z,6.59
2018-12-23T00:10:07.637Z,6.55
2018-12-23T00:12:40.470Z,6.64
2018-12-23T00:15:11.464Z,6.66
2018-12-23T00:17:42.201Z,6.73
2018-12-23T00:20:12.687Z,6.64
2018-12-23T00:22:42.778Z,6.67
2018-12-23T00:25:13.754Z,6.64
2018-12-23T00:27:43.823Z,6.65
2018-12-23T00:30:14.765Z,6.75
2018-12-23T00:32:44.876Z,6.74
2018-12-23T00:35:20.339Z,6.75
2018-12-23T00:37:47.223Z,6.75
2018-12-23T00:40:18.158Z,6.79
2018-12-23T00:42:48.214Z,6.75
2018-12-23T00:45:18.453Z,6.76
2018-12-23T00:47:49.292Z,6.74
2018-12-23T00:50:19.463Z,6.74
2018-12-23T00:52:49.731Z,6.91
2018-12-23T00:55:19.889Z,6.93
2018-12-23T00:57:50.440Z,6.91
2018-12-23T01:00:21.162Z,7.03
2018-12-23T01:02:51.344Z,6.95
2018-12-23T01:05:28.583Z,6.82
2018-12-23T01:07:53.721Z,6.86
2018-12-23T01:10:25.051Z,6.88
2018-12-23T01:12:55.850Z,6.98
2018-12-23T01:15:26.484Z,6.95
2018-12-23T01:17:57.241Z,7.04
2018-12-23T01:20:27.166Z,6.95
2018-12-23T01:22:57.659Z,7.00
2018-12-23T01:25:27.835Z,7.06
2018-12-23T01:27:57.901Z,7.01
2018-12-23T01:30:28.626Z,6.98
2018-12-23T01:32:59.463Z,7.00
2018-12-23T01:35:37.047Z,6.95
2018-12-23T01:38:02.749Z,6.98
2018-12-23T01:40:33.578Z,7.02
2018-12-23T01:43:03.773Z,7.06
2018-12-23T01:45:33.874Z,7.07
2018-12-23T01:48:04.617Z,7.12
2018-12-23T01:50:35.333Z,7.11
2018-12-23T01:53:05.431Z,6.96
2018-12-23T01:55:35.532Z,7.06
2018-12-23T01:58:06.393Z,7.14
2018-12-23T02:00:37.721Z,7.00
2018-12-23T02:03:07.905Z,7.09
2018-12-23T02:05:45.878Z,7.06
2018-12-23T02:08:10.475Z,7.10
2018-12-23T02:10:40.608Z,7.12
2018-12-23T02:13:10.659Z,7.07
2018-12-23T02:15:40.799Z,7.12
2018-12-23T02:18:11.423Z,7.18
2018-12-23T02:20:42.419Z,7.06
2018-12-23T02:23:13.021Z,7.10
2018-12-23T02:25:43.874Z,7.19
2018-12-23T02:28:14.129Z,7.10
2018-12-23T02:30:44.153Z,7.16
2018-12-23T02:33:14.298Z,7.10
2018-12-23T02:35:44.515Z,7.20
2018-12-23T02:38:14.568Z,7.16
2018-12-23T02:40:45.534Z,7.19
2018-12-23T02:43:15.754Z,7.18
2018-12-23T02:45:45.911Z,7.18
2018-12-23T02:48:16.738Z,7.21
2018-12-23T02:50:47.177Z,7.18
2018-12-23T02:53:17.756Z,7.13
2018-12-23T02:55:48.009Z,7.20
2018-12-23T02:58:18.785Z,7.11
2018-12-23T03:00:49.926Z,7.11
2018-12-23T03:03:20.736Z,7.13
2018-12-23T03:05:50.858Z,7.23
2018-12-23T03:08:21.366Z,7.16
2018-12-23T03:10:51.537Z,7.13
2018-12-23T03:13:22.484Z,7.16
2018-12-23T03:15:52.516Z,7.24
2018-12-23T03:18:24.265Z,7.20
2018-12-23T03:20:55.008Z,7.16
2018-12-23T03:23:25.601Z,7.19
2018-12-23T03:25:56.376Z,7.25
2018-12-23T03:28:27.669Z,7.18
2018-12-23T03:30:57.945Z,7.28
2018-12-23T03:33:27.983Z,7.28
2018-12-23T03:35:58.671Z,7.25
2018-12-23T03:38:28.940Z,7.32
2018-12-23T03:41:00.286Z,7.24
2018-12-23T03:43:30.336Z,7.25
2018-12-23T03:46:00.342Z,7.25
2018-12-23T03:48:30.469Z,7.30
2018-12-23T03:51:01.407Z,7.27
2018-12-23T03:53:31.441Z,7.33
2018-12-23T03:56:01.458Z,7.41
2018-12-23T03:58:32.900Z,7.34
2018-12-23T04:01:03.638Z,7.24
2018-12-23T04:03:33.723Z,7.24
2018-12-23T04:06:05.202Z,7.26
2018-12-23T04:08:35.423Z,7.37
2018-12-23T04:11:05.620Z,7.40
2018-12-23T04:13:36.792Z,7.46
2018-12-23T04:16:07.737Z,7.40
2018-12-23T04:18:37.855Z,7.40
2018-12-23T04:21:08.511Z,7.48
2018-12-23T04:23:38.579Z,7.50
2018-12-23T04:26:08.665Z,7.41
2018-12-23T04:28:39.510Z,7.39
2018-12-23T04:31:10.213Z,7.38
2018-12-23T04:33:40.416Z,7.47
2018-12-23T04:36:11.284Z,7.48
2018-12-23T04:38:42.158Z,7.50
2018-12-23T04:41:12.384Z,7.44
2018-12-23T04:43:43.187Z,7.40
2018-12-23T04:46:13.291Z,7.52
2018-12-23T04:48:43.608Z,7.46
2018-12-23T04:51:13.652Z,7.49
2018-12-23T04:53:45.119Z,7.51
2018-12-23T04:56:15.877Z,7.48
2018-12-23T04:58:46.979Z,7.44
2018-12-23T05:01:17.126Z,7.36
2018-12-23T05:03:47.816Z,7.41
2018-12-23T05:06:18.072Z,7.49
2018-12-23T05:08:48.273Z,7.50
2018-12-23T05:11:18.421Z,7.46
2018-12-23T05:13:48.601Z,7.55
2018-12-23T05:16:18.726Z,7.51
2018-12-23T05:18:48.833Z,7.42
2018-12-23T05:21:19.395Z,7.51
2018-12-23T05:23:49.447Z,7.59
2018-12-23T05:26:19.587Z,7.58
2018-12-23T05:28:50.223Z,7.58
2018-12-23T05:31:20.644Z,7.55
2018-12-23T05:33:50.798Z,7.54
2018-12-23T05:36:22.254Z,7.57
2018-12-23T05:38:52.388Z,7.52
2018-12-23T05:41:24.556Z,7.54
2018-12-23T05:43:54.750Z,7.65
2018-12-23T05:46:24.715Z,7.55
2018-12-23T05:48:55.376Z,7.59
2018-12-23T05:51:25.457Z,7.56
2018-12-23T05:53:55.622Z,7.54
2018-12-23T05:56:25.627Z,7.51
2018-12-23T05:58:56.303Z,7.53
2018-12-23T06:01:26.421Z,7.56
2018-12-23T06:03:57.278Z,7.53
2018-12-23T06:06:27.915Z,7.63
2018-12-23T06:08:58.626Z,7.62
2018-12-23T06:11:29.507Z,7.53
2018-12-23T06:14:00.293Z,7.56
2018-12-23T06:16:31.499Z,7.62
2018-12-23T06:19:02.543Z,7.52
2018-12-23T06:21:34.259Z,7.58
2018-12-23T06:24:04.523Z,7.51
2018-12-23T06:26:35.403Z,7.56
2018-12-23T06:29:06.298Z,7.48
2018-12-23T06:31:36.638Z,7.46
2018-12-23T06:34:06.949Z,7.55
2018-12-23T06:36:38.118Z,7.46
2018-12-23T06:39:08.579Z,7.52
2018-12-23T06:41:38.675Z,7.47
2018-12-23T06:44:08.825Z,7.50
2018-12-23T06:46:39.429Z,7.54
2018-12-23T06:49:10.373Z,7.52
2018-12-23T06:51:40.601Z,7.48
2018-12-23T06:54:10.673Z,7.53
2018-12-23T06:56:41.715Z,7.49
2018-12-23T06:59:12.310Z,7.48
2018-12-23T07:01:42.620Z,7.48
2018-12-23T07:04:12.750Z,7.45
2018-12-23T07:06:43.343Z,7.50
2018-12-23T07:09:14.128Z,7.49
2018-12-23T07:11:44.122Z,7.51
2018-12-23T07:14:14.305Z,7.52
2018-12-23T07:16:44.554Z,7.50
2018-12-23T07:19:14.718Z,7.52
2018-12-23T07:21:44.744Z,7.47
2018-12-23T07:24:15.072Z,7.52
2018-12-23T07:26:45.216Z,7.44
2018-12-23T07:29:15.407Z,7.38
2018-12-23T07:31:46.675Z,7.42
2018-12-23T07:34:17.178Z,7.50
2018-12-23T07:36:49.667Z,7.43
2018-12-23T07:39:20.158Z,7.40
2018-12-23T07:41:50.339Z,7.38
2018-12-23T07:44:21.469Z,7.44
2018-12-23T07:46:51.616Z,7.35
2018-12-23T07:49:22.515Z,7.44
2018-12-23T07:51:52.583Z,7.39
2018-12-23T07:54:22.813Z,7.40
2018-12-23T07:56:52.829Z,7.48
2018-12-23T07:59:22.902Z,7.46
2018-12-23T08:01:53.678Z,7.45
2018-12-23T08:04:25.262Z,7.50
2018-12-23T08:06:55.512Z,7.47
2018-12-23T08:09:26.642Z,7.46
2018-12-23T08:11:58.051Z,7.56
2018-12-23T08:14:28.089Z,7.66
2018-12-23T08:16:59.132Z,7.61
2018-12-23T08:19:29.221Z,7.63
2018-12-23T08:22:00.014Z,7.66
2018-12-23T08:24:30.011Z,7.57
2018-12-23T08:27:00.798Z,7.63
2018-12-23T08:29:31.641Z,7.64
2018-12-23T08:32:01.754Z,7.67
2018-12-23T08:34:31.970Z,7.75
2018-12-23T08:37:01.966Z,7.64
2018-12-23T08:39:32.135Z,7.72
2018-12-23T08:42:02.179Z,7.79
2018-12-23T08:44:32.361Z,7.77
2018-12-23T08:47:02.868Z,7.84
2018-12-23T08:49:33.551Z,7.91
2018-12-23T08:52:03.658Z,7.97
2018-12-23T08:54:33.991Z,7.96
2018-12-23T08:57:04.123Z,7.97
2018-12-23T08:59:34.366Z,7.88
2018-12-23T09:02:04.567Z,7.89
2018-12-23T09:04:34.751Z,7.89
2018-12-23T09:07:05.722Z,7.87
2018-12-23T09:09:36.096Z,7.99
2018-12-23T09:12:06.198Z,7.91
2018-12-23T09:14:36.348Z,7.88
2018-12-23T09:17:06.542Z,8.00
2018-12-23T09:19:37.300Z,8.00
2018-12-23T09:22:07.325Z,7.96
2018-12-23T09:24:38.712Z,8.03
2018-12-23T09:27:08.775Z,8.02
2018-12-23T09:29:39.021Z,7.93
2018-12-23T09:32:09.149Z,7.95
2018-12-23T09:34:40.040Z,8.05
2018-12-23T09:37:10.050Z,8.05
2018-12-23T09:39:41.203Z,8.10
2018-12-23T09:42:11.115Z,8.09
2018-12-23T09:44:41.218Z,7.99
2018-12-23T09:47:12.053Z,8.06
2018-12-23T09:49:42.590Z,8.09
2018-12-23T09:52:12.670Z,8.13
2018-12-23T09:54:42.660Z,8.11
2018-12-23T09:57:14.233Z,8.04
2018-12-23T09:59:44.467Z,8.14
2018-12-23T10:02:15.326Z,8.15
2018-12-23T10:04:46.081Z,8.16
2018-12-23T10:07:16.234Z,8.12
2018-12-23T10:09:46.555Z,8.17
2018-12-23T10:12:17.395Z,8.11
2018-12-23T10:14:47.705Z,8.14
2018-12-23T10:17:17.783Z,8.11
2018-12-23T10:19:47.982Z,8.09
2018-12-23T10:22:18.964Z,8.09
2018-12-23T10:24:49.054Z,8.12
2018-12-23T10:27:19.186Z,8.13
2018-12-23T10:29:50.414Z,8.18
2018-12-23T10:32:20.528Z,8.24
2018-12-23T10:34:51.356Z,8.32
2018-12-23T10:37:22.607Z,8.32
2018-12-23T10:39:52.744Z,8.31
2018-12-23T10:42:22.819Z,8.30
2018-12-23T10:44:53.011Z,8.34
2018-12-23T10:47:23.802Z,8.34
2018-12-23T10:49:54.046Z,8.39
2018-12-23T10:52:24.001Z,8.35
2018-12-23T10:54:55.260Z,8.35
2018-12-23T10:57:25.881Z,8.43
2018-12-23T10:59:56.210Z,8.38
2018-12-23T11:02:26.302Z,8.42
2018-12-23T11:04:57.278Z,8.47
2018-12-23T11:07:27.911Z,8.52
2018-12-23T11:10:01.964Z,8.44
2018-12-23T11:12:30.519Z,8.47
2018-12-23T11:15:00.640Z,8.50
2018-12-23T11:17:30.666Z,8.54
2018-12-23T11:20:01.909Z,8.41
2018-12-23T11:22:32.661Z,8.37
2018-12-23T11:25:03.398Z,8.45
2018-12-23T11:27:34.613Z,8.44
2018-12-23T11:30:05.456Z,8.45
2018-12-23T11:32:36.014Z,8.51
2018-12-23T11:35:06.812Z,8.53
2018-12-23T11:37:36.780Z,8.46
2018-12-23T11:40:08.386Z,8.39
2018-12-23T11:42:38.454Z,8.41
2018-12-23T11:45:09.591Z,8.42
2018-12-23T11:47:40.286Z,8.32
2018-12-23T11:50:10.385Z,8.29
2018-12-23T11:52:40.425Z,8.31
2018-12-23T11:55:10.496Z,8.22
2018-12-23T11:57:41.246Z,8.25
2018-12-23T12:00:11.336Z,8.30
2018-12-23T12:02:41.403Z,8.20
2018-12-23T12:05:11.711Z,8.23
2018-12-23T12:07:42.465Z,8.20
2018-12-23T12:10:12.675Z,8.15
2018-12-23T12:12:43.377Z,8.20
2018-12-23T12:15:14.166Z,8.14
2018-12-23T12:17:44.686Z,8.20
2018-12-23T12:20:15.634Z,8.12
2018-12-23T14:17:47.897Z,7.86
2018-12-23T18:07:03.912Z,5.99
2018-12-23T18:22:02.066Z,5.89
2018-12-23T18:25:44.899Z,5.92
2018-12-23T18:28:35.306Z,5.88
2018-12-23T20:40:14.876Z,6.03
2018-12-23T20:47:17.218Z,6.05
2018-12-23T20:50:26.688Z,5.97
2018-12-23T20:53:56.049Z,6.01
2018-12-23T20:57:15.523Z,6.01
2018-12-23T21:00:46.972Z,5.94
2018-12-23T21:04:01.995Z,6.02
2018-12-23T21:07:35.391Z,5.92
2018-12-23T21:11:02.141Z,5.95
2018-12-23T21:14:43.991Z,5.90
2018-12-23T21:18:03.265Z,5.97
2018-12-23T21:21:42.738Z,5.96
2018-12-23T21:25:11.288Z,6.04
2018-12-23T21:28:33.323Z,6.05
2018-12-23T21:32:08.952Z,6.12
2018-12-23T21:35:33.009Z,6.09
2018-12-23T21:39:08.419Z,6.04
2018-12-23T21:42:42.245Z,6.07
2018-12-23T21:46:00.062Z,6.03
2018-12-23T21:49:38.976Z,6.14
2018-12-23T21:53:03.446Z,6.08
2018-12-23T21:56:26.158Z,6.08
2018-12-23T21:59:32.898Z,6.06
2018-12-23T22:02:49.061Z,5.96
2018-12-23T22:06:05.037Z,6.03
2018-12-23T22:09:20.645Z,5.99
2018-12-23T22:12:46.706Z,5.99
2018-12-23T22:15:18.239Z,5.89
2018-12-23T22:17:49.771Z,5.89
2018-12-23T22:20:21.238Z,5.89
2018-12-23T22:22:52.756Z,5.76
2018-12-23T22:25:24.178Z,5.73
2018-12-23T22:27:55.582Z,5.72
2018-12-23T22:30:27.093Z,5.89
2018-12-23T22:32:59.418Z,5.92
2018-12-23T22:35:31.292Z,5.91
2018-12-23T22:38:02.773Z,5.98
2018-12-23T22:40:35.401Z,6.04
2018-12-23T22:43:06.809Z,6.01
2018-12-23T22:45:38.277Z,5.88
2018-12-23T22:48:09.706Z,5.87
2018-12-23T22:50:41.215Z,5.99
2018-12-23T22:53:12.799Z,5.91
2018-12-23T22:55:44.529Z,5.82
2018-12-23T22:58:15.966Z,5.84
2018-12-23T23:00:47.429Z,5.99
2018-12-23T23:03:18.851Z,5.94
2018-12-23T23:05:50.346Z,5.75
2018-12-23T23:08:22.075Z,5.72
2018-12-23T23:10:53.504Z,5.88
2018-12-23T23:13:25.216Z,5.77
2018-12-23T23:15:56.696Z,5.81
2018-12-23T23:18:28.108Z,5.70
2018-12-23T23:20:59.525Z,5.67
2018-12-23T23:23:31.015Z,5.73
2018-12-23T23:26:02.730Z,5.72
2018-12-23T23:28:43.427Z,5.77
2018-12-23T23:31:14.850Z,5.77
2018-12-23T23:33:46.570Z,5.68
2018-12-23T23:36:18.141Z,5.72
2018-12-23T23:38:49.564Z,5.81
2018-12-23T23:41:21.022Z,5.91
2018-12-23T23:43:52.563Z,5.82
2018-12-23T23:46:24.273Z,5.89
2018-12-23T23:48:55.689Z,5.81
2018-12-23T23:51:27.677Z,5.91
2018-12-23T23:53:59.131Z,5.82
2018-12-23T23:56:31.080Z,5.74
2018-12-23T23:59:02.489Z,5.69
